createdAt,value
2023-12-13T00:01:19.301Z,2
2023-12-13T00:03:02.707Z,1
2023-12-13T00:04:46.098Z,2
2023-12-13T00:06:29.494Z,2
2023-12-13T00:08:12.902Z,1
2023-12-13T00:09:56.381Z,2
2023-12-13T00:11:39.681Z,2
2023-12-13T00:13:23.081Z,2
2023-12-13T00:15:06.944Z,2
2023-12-13T00:16:50.191Z,2
2023-12-13T00:18:33.590Z,2
2023-12-13T00:20:16.981Z,2
2023-12-13T00:22:00.392Z,2
2023-12-13T00:23:43.775Z,2
2023-12-13T00:25:27.152Z,2
2023-12-13T00:27:10.588Z,2
2023-12-13T00:30:37.044Z,1
2023-12-13T00:32:20.576Z,2
2023-12-13T00:34:03.840Z,1
2023-12-13T00:35:47.237Z,1
2023-12-13T00:37:30.639Z,1
2023-12-13T00:39:14.018Z,1
2023-12-13T00:40:57.425Z,1
2023-12-13T00:42:40.820Z,1
2023-12-13T00:46:07.317Z,1
2023-12-13T00:47:50.745Z,1
2023-12-13T00:49:34.079Z,1
2023-12-13T00:51:17.485Z,1
2023-12-13T00:53:00.967Z,1
2023-12-13T00:54:44.274Z,1
2023-12-13T00:56:27.682Z,1
2023-12-13T01:01:36.928Z,1
2023-12-13T01:03:20.318Z,1
2023-12-13T01:05:03.705Z,1
2023-12-13T01:06:47.126Z,0
2023-12-13T01:08:30.517Z,2
2023-12-13T01:10:13.913Z,1
2023-12-13T01:11:57.312Z,1
2023-12-13T01:15:23.774Z,2
2023-12-13T01:17:07.168Z,1
2023-12-13T01:18:50.560Z,1
2023-12-13T01:20:34.074Z,1
2023-12-13T01:22:17.456Z,1
2023-12-13T01:24:00.780Z,1
2023-12-13T01:25:44.159Z,1
2023-12-13T01:27:27.598Z,1
2023-12-13T01:29:11.347Z,2
2023-12-13T01:30:54.817Z,2
2023-12-13T01:32:38.094Z,1
2023-12-13T01:34:21.561Z,1
2023-12-13T01:36:04.872Z,1
2023-12-13T01:37:48.356Z,1
2023-12-13T01:39:31.648Z,1
2023-12-13T01:41:15.094Z,1
2023-12-13T01:44:41.603Z,1
2023-12-13T01:46:24.974Z,1
2023-12-13T01:48:08.348Z,1
2023-12-13T01:49:51.787Z,1
2023-12-13T01:51:35.144Z,1
2023-12-13T01:53:18.485Z,1
2023-12-13T01:55:01.916Z,1
2023-12-13T02:00:11.200Z,1
2023-12-13T02:01:54.563Z,1
2023-12-13T02:03:37.917Z,1
2023-12-13T02:05:21.337Z,1
2023-12-13T02:07:04.800Z,1
2023-12-13T02:08:48.147Z,1
2023-12-13T02:10:31.508Z,1
2023-12-13T02:13:58.080Z,2
2023-12-13T02:17:24.784Z,1
2023-12-13T02:22:34.962Z,1
2023-12-13T02:24:18.374Z,1
2023-12-13T02:26:01.754Z,2
2023-12-13T02:27:45.467Z,1
2023-12-13T02:29:28.853Z,0
2023-12-13T02:31:12.272Z,2
2023-12-13T02:32:55.646Z,1
2023-12-13T02:34:39.057Z,1
2023-12-13T02:36:22.561Z,1
2023-12-13T02:38:05.861Z,1
2023-12-13T02:39:49.425Z,1
2023-12-13T02:41:32.946Z,1
2023-12-13T02:43:16.332Z,1
2023-12-13T02:44:59.825Z,1
2023-12-13T02:46:43.129Z,1
2023-12-13T02:48:26.625Z,1
2023-12-13T02:50:09.925Z,1
2023-12-13T02:51:53.305Z,2
2023-12-13T02:53:36.713Z,2
2023-12-13T02:55:20.405Z,2
2023-12-13T02:57:03.807Z,0
2023-12-13T02:58:47.301Z,1
2023-12-13T03:00:30.610Z,1
2023-12-13T03:02:14.008Z,1
2023-12-13T03:03:57.428Z,1
2023-12-13T03:05:40.802Z,1
2023-12-13T03:09:07.372Z,1
2023-12-13T03:10:50.718Z,1
2023-12-13T03:12:34.065Z,2
2023-12-13T03:14:17.454Z,1
2023-12-13T03:16:00.827Z,1
2023-12-13T03:17:44.271Z,1
2023-12-13T03:19:27.648Z,1
2023-12-13T03:22:54.292Z,1
2023-12-13T03:24:37.535Z,1
2023-12-13T03:26:20.924Z,1
2023-12-13T03:28:04.311Z,1
2023-12-13T03:29:47.770Z,1
2023-12-13T03:31:31.092Z,1
2023-12-13T03:33:14.544Z,1
2023-12-13T03:34:57.941Z,1
2023-12-13T03:38:24.399Z,1
2023-12-13T03:40:07.787Z,1
2023-12-13T03:41:51.213Z,1
2023-12-13T03:43:34.561Z,2
2023-12-13T03:45:17.941Z,1
2023-12-13T03:47:01.479Z,1
2023-12-13T03:48:44.746Z,1
2023-12-13T03:53:53.979Z,1
2023-12-13T03:55:37.437Z,1
2023-12-13T03:57:20.804Z,1
2023-12-13T03:59:04.200Z,1
2023-12-13T04:00:47.603Z,1
2023-12-13T04:02:30.983Z,2
2023-12-13T04:04:14.365Z,1
2023-12-13T04:09:23.629Z,1
2023-12-13T04:11:07.011Z,1
2023-12-13T04:12:50.420Z,1
2023-12-13T04:14:33.921Z,1
2023-12-13T04:16:17.204Z,1
2023-12-13T04:18:00.614Z,1
2023-12-13T04:19:43.996Z,2
2023-12-13T04:21:27.373Z,2
2023-12-13T04:23:11.090Z,1
2023-12-13T04:24:54.512Z,1
2023-12-13T04:26:37.897Z,1
2023-12-13T04:28:21.268Z,1
2023-12-13T04:30:04.713Z,1
2023-12-13T04:31:48.082Z,2
2023-12-13T04:33:31.472Z,1
2023-12-13T04:35:14.950Z,1
2023-12-13T04:38:41.342Z,1
2023-12-13T04:40:24.744Z,1
2023-12-13T04:42:08.125Z,2
2023-12-13T04:43:51.519Z,1
2023-12-13T04:45:34.925Z,1
2023-12-13T04:47:18.313Z,1
2023-12-13T04:49:01.720Z,1
2023-12-13T04:54:10.958Z,1
2023-12-13T04:55:54.349Z,2
2023-12-13T04:57:37.750Z,2
2023-12-13T04:59:21.153Z,1
2023-12-13T05:01:04.575Z,1
2023-12-13T05:02:47.935Z,1
2023-12-13T05:04:31.332Z,1
2023-12-13T05:09:40.579Z,1
2023-12-13T05:11:23.978Z,1
2023-12-13T05:13:07.374Z,1
2023-12-13T05:14:50.778Z,1
2023-12-13T05:16:34.285Z,1
2023-12-13T05:18:17.664Z,1
2023-12-13T05:20:00.970Z,1
2023-12-13T05:21:44.375Z,1
2023-12-13T05:25:10.856Z,1
2023-12-13T05:26:54.236Z,1
2023-12-13T05:28:37.628Z,1
2023-12-13T05:30:21.026Z,1
2023-12-13T05:32:04.432Z,1
2023-12-13T05:33:47.803Z,1
2023-12-13T05:35:31.224Z,1
2023-12-13T05:37:14.628Z,1
2023-12-13T05:40:41.073Z,1
2023-12-13T05:42:24.577Z,1
2023-12-13T05:44:07.877Z,1
2023-12-13T05:45:51.267Z,1
2023-12-13T05:47:34.649Z,1
2023-12-13T05:49:18.046Z,1
2023-12-13T05:51:01.466Z,1
2023-12-13T05:54:27.957Z,1
2023-12-13T05:56:11.339Z,2
2023-12-13T05:57:54.814Z,1
2023-12-13T05:59:38.116Z,1
2023-12-13T06:01:21.509Z,1
2023-12-13T06:03:05.074Z,1
2023-12-13T06:04:48.347Z,1
2023-12-13T06:06:31.677Z,1
2023-12-13T06:08:15.402Z,1
2023-12-13T06:09:58.803Z,1
2023-12-13T06:11:42.200Z,1
2023-12-13T06:13:25.596Z,1
2023-12-13T06:15:09.059Z,1
2023-12-13T06:16:52.433Z,2
2023-12-13T06:18:35.788Z,1
2023-12-13T06:20:19.178Z,0
2023-12-13T06:23:45.634Z,2
2023-12-13T06:25:29.050Z,0
2023-12-13T06:27:12.433Z,1
2023-12-13T06:28:55.828Z,1
2023-12-13T06:30:39.221Z,1
2023-12-13T06:32:22.613Z,1
2023-12-13T06:34:06.042Z,1
2023-12-13T06:37:32.484Z,1
2023-12-13T06:39:15.891Z,1
2023-12-13T06:40:59.286Z,1
2023-12-13T06:42:42.689Z,1
2023-12-13T06:44:26.077Z,1
2023-12-13T06:46:09.499Z,1
2023-12-13T06:47:52.871Z,1
2023-12-13T06:49:36.266Z,1
2023-12-13T06:51:19.982Z,1
2023-12-13T06:53:03.361Z,1
2023-12-13T06:54:46.759Z,1
2023-12-13T06:56:30.235Z,2
2023-12-13T06:58:13.538Z,1
2023-12-13T06:59:56.981Z,1
2023-12-13T07:01:40.629Z,2
2023-12-13T07:03:23.802Z,1
2023-12-13T07:05:07.473Z,1
2023-12-13T07:06:50.836Z,1
2023-12-13T07:08:34.257Z,2
2023-12-13T07:10:17.630Z,1
2023-12-13T07:12:01.173Z,1
2023-12-13T07:13:44.718Z,2
2023-12-13T07:15:27.957Z,2
2023-12-13T07:17:11.256Z,2
2023-12-13T07:20:37.824Z,3
2023-12-13T07:22:21.293Z,3
2023-12-13T07:24:04.487Z,3
2023-12-13T07:25:48.083Z,3
2023-12-13T07:27:31.280Z,2
2023-12-13T07:29:14.703Z,3
2023-12-13T07:30:58.195Z,3
2023-12-13T07:32:41.527Z,4
2023-12-13T07:34:25.293Z,3
2023-12-13T07:36:08.605Z,3
2023-12-13T07:37:52.142Z,3
2023-12-13T07:39:35.374Z,3
2023-12-13T07:41:18.790Z,3
2023-12-13T07:43:02.315Z,4
2023-12-13T07:44:45.585Z,4
2023-12-13T07:46:29.006Z,4
2023-12-13T07:49:55.446Z,6
2023-12-13T07:51:38.941Z,6
2023-12-13T07:53:22.533Z,7
2023-12-13T07:55:05.707Z,8
2023-12-13T07:56:49.296Z,7
2023-12-13T07:58:32.536Z,9
2023-12-13T08:00:15.937Z,9
2023-12-13T08:03:42.264Z,7
2023-12-13T08:05:25.673Z,7
2023-12-13T08:07:09.212Z,6
2023-12-13T08:08:52.715Z,7
2023-12-13T08:10:35.963Z,5
2023-12-13T08:12:19.551Z,4
2023-12-13T08:14:02.789Z,8
2023-12-13T08:15:46.332Z,12
2023-12-13T08:19:12.528Z,14
2023-12-13T08:20:56.215Z,15
2023-12-13T08:22:39.717Z,15
2023-12-13T08:24:22.980Z,16
2023-12-13T08:26:06.366Z,15
2023-12-13T08:27:49.832Z,16
2023-12-13T08:29:33.251Z,15
2023-12-13T08:34:42.473Z,15
2023-12-13T08:36:25.551Z,14
2023-12-13T08:38:09.220Z,14
2023-12-13T08:39:52.653Z,18
2023-12-13T08:41:35.899Z,19
2023-12-13T08:43:19.140Z,19
2023-12-13T08:45:02.809Z,20
2023-12-13T08:48:29.375Z,20
2023-12-13T08:50:12.718Z,27
2023-12-13T08:51:56.157Z,28
2023-12-13T08:53:39.473Z,28
2023-12-13T08:55:22.851Z,27
2023-12-13T08:57:06.274Z,26
2023-12-13T08:58:49.716Z,51
2023-12-13T09:03:59.035Z,85
2023-12-13T09:05:42.113Z,99
2023-12-13T09:07:25.395Z,106
2023-12-13T09:09:09.134Z,112
2023-12-13T09:10:52.568Z,113
2023-12-13T09:12:35.966Z,107
2023-12-13T09:14:19.199Z,101
2023-12-13T09:19:28.612Z,90
2023-12-13T09:21:11.642Z,94
2023-12-13T09:22:55.038Z,96
2023-12-13T09:24:38.704Z,96
2023-12-13T09:26:22.162Z,99
2023-12-13T09:28:05.497Z,114
2023-12-13T09:29:48.788Z,140
2023-12-13T09:34:58.198Z,229
2023-12-13T09:36:41.590Z,240
2023-12-13T09:38:24.892Z,226
2023-12-13T09:40:08.125Z,201
2023-12-13T09:41:51.765Z,186
2023-12-13T09:43:34.918Z,151
2023-12-13T09:45:18.634Z,119
2023-12-13T09:48:44.932Z,97
2023-12-13T09:50:28.458Z,93
2023-12-13T09:52:11.853Z,97
2023-12-13T09:53:55.075Z,110
2023-12-13T09:57:21.977Z,106
2023-12-13T09:59:05.349Z,114
2023-12-13T10:04:14.502Z,135
2023-12-13T10:05:57.895Z,128
2023-12-13T10:07:41.397Z,142
2023-12-13T10:09:24.526Z,178
2023-12-13T10:11:07.979Z,214
2023-12-13T10:12:51.595Z,230
2023-12-13T10:14:34.809Z,249
2023-12-13T10:18:01.194Z,438
2023-12-13T10:19:44.748Z,423
2023-12-13T10:21:28.232Z,311
2023-12-13T10:23:11.364Z,297
2023-12-13T10:24:54.867Z,279
2023-12-13T10:26:38.298Z,252
2023-12-13T10:28:21.617Z,240
2023-12-13T10:30:05.208Z,266
2023-12-13T10:33:31.446Z,238
2023-12-13T10:35:14.902Z,209
2023-12-13T10:36:58.288Z,199
2023-12-13T10:38:41.988Z,180
2023-12-13T10:40:25.009Z,152
2023-12-13T10:42:08.414Z,170
2023-12-13T10:43:51.900Z,198
2023-12-13T10:45:35.193Z,239
2023-12-13T10:47:18.905Z,274
2023-12-13T10:49:02.497Z,323
2023-12-13T10:50:45.852Z,347
2023-12-13T10:52:29.269Z,355
2023-12-13T10:54:12.697Z,380
2023-12-13T10:55:56.188Z,440
2023-12-13T10:57:39.512Z,498
2023-12-13T11:02:48.616Z,557
2023-12-13T11:04:32.041Z,535
2023-12-13T11:06:15.371Z,524
2023-12-13T11:07:59.019Z,495
2023-12-13T11:09:42.414Z,470
2023-12-13T11:11:25.498Z,416
2023-12-13T11:13:09.053Z,379
2023-12-13T11:16:35.521Z,403
2023-12-13T11:18:19.033Z,415
2023-12-13T11:20:02.184Z,429
2023-12-13T11:21:45.572Z,508
2023-12-13T11:23:29.057Z,414
2023-12-13T11:25:12.439Z,347
2023-12-13T11:26:55.822Z,332
2023-12-13T11:30:22.316Z,422
2023-12-13T11:32:05.639Z,454
2023-12-13T11:33:49.037Z,380
2023-12-13T11:35:32.638Z,352
2023-12-13T11:37:15.847Z,421
2023-12-13T11:38:59.372Z,345
2023-12-13T11:40:42.805Z,396
2023-12-13T11:45:51.922Z,420
2023-12-13T11:47:35.508Z,419
2023-12-13T11:49:18.695Z,370
2023-12-13T11:51:02.268Z,357
2023-12-13T11:52:45.608Z,347
2023-12-13T11:54:29.036Z,336
2023-12-13T11:56:12.223Z,300
2023-12-13T12:01:21.508Z,366
2023-12-13T12:03:04.858Z,417
2023-12-13T12:04:48.257Z,471
2023-12-13T12:06:31.650Z,505
2023-12-13T12:08:15.284Z,460
2023-12-13T12:09:58.630Z,445
2023-12-13T12:11:41.883Z,441
2023-12-13T12:13:25.242Z,424
2023-12-13T12:15:08.983Z,416
2023-12-13T12:16:52.501Z,405
2023-12-13T12:18:35.751Z,426
2023-12-13T12:20:19.123Z,449
2023-12-13T12:22:02.622Z,483
2023-12-13T12:23:46.011Z,524
2023-12-13T12:25:29.588Z,584
2023-12-13T12:27:12.958Z,651
2023-12-13T12:28:56.571Z,598
2023-12-13T12:30:39.967Z,543
2023-12-13T12:32:23.212Z,538
2023-12-13T12:34:06.609Z,507
2023-12-13T12:35:50.235Z,486
2023-12-13T12:37:33.784Z,473
2023-12-13T12:39:17.046Z,466
2023-12-13T12:41:00.180Z,443
2023-12-13T12:42:44.208Z,404
2023-12-13T12:44:27.526Z,385
2023-12-13T12:46:10.940Z,379
2023-12-13T12:47:54.275Z,377
2023-12-13T12:49:37.546Z,379
2023-12-13T12:51:20.894Z,392
2023-12-13T12:53:04.586Z,405
2023-12-13T12:54:47.662Z,441
2023-12-13T12:56:31.512Z,436
2023-12-13T12:58:14.873Z,490
2023-12-13T12:59:58.298Z,541
2023-12-13T13:01:41.631Z,555
2023-12-13T13:03:25.110Z,588
2023-12-13T13:05:08.415Z,574
2023-12-13T13:06:51.930Z,570
2023-12-13T13:08:35.451Z,584
2023-12-13T13:13:45.200Z,564
2023-12-13T13:15:28.672Z,558
2023-12-13T13:17:11.952Z,484
2023-12-13T13:18:55.531Z,398
2023-12-13T13:22:22.318Z,285
2023-12-13T13:24:05.412Z,261
2023-12-13T13:27:32.148Z,255
2023-12-13T13:29:15.478Z,262
2023-12-13T13:30:58.771Z,239
2023-12-13T13:32:42.102Z,214
2023-12-13T13:34:25.577Z,215
2023-12-13T13:36:08.872Z,232
2023-12-13T13:37:52.489Z,261
2023-12-13T13:39:35.673Z,286
2023-12-13T13:41:19.414Z,301
2023-12-13T13:43:02.849Z,298
2023-12-13T13:44:46.202Z,299
2023-12-13T13:46:29.660Z,302
2023-12-13T13:48:13.000Z,286
2023-12-13T13:49:56.346Z,226
2023-12-13T13:51:39.781Z,226
2023-12-13T13:53:23.269Z,219
2023-12-13T13:56:49.818Z,202
2023-12-13T13:58:33.023Z,179
2023-12-13T14:00:16.396Z,155
2023-12-13T14:01:59.818Z,133
2023-12-13T14:03:43.222Z,110
2023-12-13T14:05:26.593Z,99
2023-12-13T14:07:10.066Z,93
2023-12-13T14:10:36.479Z,69
2023-12-13T14:12:19.920Z,57
2023-12-13T14:14:03.447Z,43
2023-12-13T14:15:46.725Z,28
2023-12-13T14:17:30.189Z,24
2023-12-13T14:19:13.483Z,263
2023-12-13T14:20:56.891Z,260
2023-12-13T14:22:40.255Z,270
2023-12-13T14:26:06.735Z,264
2023-12-13T14:27:50.113Z,265
2023-12-13T14:29:33.697Z,269
2023-12-13T14:31:16.913Z,285
2023-12-13T14:33:00.374Z,288
2023-12-13T14:34:43.721Z,292
2023-12-13T14:36:27.091Z,294
2023-12-13T14:39:53.621Z,280
2023-12-13T14:41:37.030Z,275
2023-12-13T14:43:20.438Z,268
2023-12-13T14:45:03.768Z,267
2023-12-13T14:46:47.160Z,264
2023-12-13T14:48:30.554Z,264
2023-12-13T14:50:13.971Z,263
2023-12-13T14:51:57.517Z,260
2023-12-13T14:53:41.084Z,259
2023-12-13T14:55:24.446Z,261
2023-12-13T14:57:07.848Z,263
2023-12-13T14:58:51.298Z,265
2023-12-13T15:00:34.664Z,266
2023-12-13T15:02:18.032Z,264
2023-12-13T15:04:01.475Z,264
2023-12-13T15:09:11.011Z,261
2023-12-13T15:10:54.128Z,261
2023-12-13T15:12:37.548Z,260
2023-12-13T15:14:21.010Z,259
2023-12-13T15:16:04.346Z,258
2023-12-13T15:17:47.658Z,258
2023-12-13T15:19:31.047Z,257
2023-12-13T15:22:57.531Z,257
2023-12-13T15:24:40.932Z,255
2023-12-13T15:26:24.309Z,255
2023-12-13T15:28:07.721Z,256
2023-12-13T15:29:51.184Z,254
2023-12-13T15:31:34.523Z,255
2023-12-13T15:33:17.890Z,255
2023-12-13T15:35:01.311Z,256
2023-12-13T15:36:44.996Z,254
2023-12-13T15:38:28.412Z,254
2023-12-13T15:40:11.864Z,252
2023-12-13T15:41:55.357Z,251
2023-12-13T15:43:38.719Z,253
2023-12-13T15:47:05.426Z,252
2023-12-13T15:48:48.805Z,250
2023-12-13T15:50:32.776Z,252
2023-12-13T15:52:16.022Z,252
2023-12-13T15:53:59.274Z,253
2023-12-13T15:55:42.702Z,254
2023-12-13T15:57:26.059Z,254
2023-12-13T15:59:09.683Z,255
2023-12-13T16:00:52.874Z,252
2023-12-13T16:02:36.305Z,251
2023-12-13T16:06:02.849Z,251
2023-12-13T16:07:46.137Z,253
2023-12-13T16:09:29.544Z,251
2023-12-13T16:11:12.953Z,253
2023-12-13T16:12:56.380Z,253
2023-12-13T16:14:39.746Z,255
2023-12-13T16:16:23.131Z,254
2023-12-13T16:18:06.702Z,254
2023-12-13T16:19:50.238Z,253
2023-12-13T16:21:33.705Z,252
2023-12-13T16:23:17.012Z,258
2023-12-13T16:25:00.406Z,260
2023-12-13T16:26:43.808Z,260
2023-12-13T16:28:27.227Z,250
2023-12-13T16:30:10.620Z,265
2023-12-13T16:31:54.013Z,269
2023-12-13T16:33:37.721Z,9
2023-12-13T16:35:21.106Z,10
2023-12-13T16:37:04.512Z,10
2023-12-13T16:38:47.911Z,10
2023-12-13T16:40:31.300Z,10
2023-12-13T16:42:14.688Z,9
2023-12-13T16:43:58.148Z,9
2023-12-13T16:45:41.569Z,9
2023-12-13T16:49:08.146Z,9
2023-12-13T16:50:51.485Z,10
2023-12-13T16:52:34.850Z,10
2023-12-13T16:54:18.159Z,10
2023-12-13T16:56:01.581Z,10
2023-12-13T16:57:44.978Z,10
2023-12-13T16:59:28.355Z,10
2023-12-13T17:01:11.784Z,9
2023-12-13T17:02:55.483Z,9
2023-12-13T17:04:38.845Z,9
2023-12-13T17:06:22.249Z,9
2023-12-13T17:08:05.658Z,9
2023-12-13T17:09:49.147Z,8
2023-12-13T17:11:32.481Z,9
2023-12-13T17:13:15.831Z,10
2023-12-13T17:14:59.238Z,9
2023-12-13T17:16:42.950Z,8
2023-12-13T17:18:26.314Z,8
2023-12-13T17:20:09.719Z,9
2023-12-13T17:21:53.117Z,10
2023-12-13T17:23:36.609Z,10
2023-12-13T17:25:19.917Z,9
2023-12-13T17:27:03.340Z,9
2023-12-13T17:32:12.543Z,9
2023-12-13T17:33:56.058Z,9
2023-12-13T17:35:39.394Z,9
2023-12-13T17:37:22.775Z,10
2023-12-13T17:39:06.160Z,9
2023-12-13T17:40:49.529Z,9
2023-12-13T17:42:32.942Z,9
2023-12-13T17:47:42.248Z,9
2023-12-13T17:49:25.586Z,9
2023-12-13T17:51:08.985Z,9
2023-12-13T17:52:52.451Z,9
2023-12-13T17:54:35.760Z,10
2023-12-13T17:56:19.220Z,10
2023-12-13T17:58:02.606Z,10
2023-12-13T18:03:11.796Z,9
2023-12-13T18:04:55.231Z,9
2023-12-13T18:06:38.597Z,9
2023-12-13T18:08:22.165Z,10
2023-12-13T18:10:05.442Z,8
2023-12-13T18:11:48.902Z,9
2023-12-13T18:13:32.284Z,9
2023-12-13T18:16:58.655Z,9
2023-12-13T18:18:42.083Z,8
2023-12-13T18:20:25.506Z,9
2023-12-13T18:22:08.869Z,9
2023-12-13T18:23:52.243Z,9
2023-12-13T18:25:35.650Z,9
2023-12-13T18:27:19.050Z,10
2023-12-13T18:29:02.458Z,10
2023-12-13T18:30:46.131Z,9
2023-12-13T18:32:29.556Z,9
2023-12-13T18:34:12.931Z,9
2023-12-13T18:35:56.325Z,9
2023-12-13T18:37:39.735Z,9
2023-12-13T18:39:23.137Z,9
2023-12-13T18:41:06.563Z,9
2023-12-13T18:46:15.768Z,9
2023-12-13T18:47:59.308Z,9
2023-12-13T18:49:42.586Z,9
2023-12-13T18:51:26.054Z,9
2023-12-13T18:53:09.404Z,16
2023-12-13T18:54:52.851Z,16
2023-12-13T18:56:36.145Z,16
2023-12-13T18:58:19.628Z,14
2023-12-13T19:00:03.246Z,16
2023-12-13T19:01:46.834Z,9
2023-12-13T19:03:30.316Z,8
2023-12-13T19:05:13.465Z,8
2023-12-13T19:06:56.822Z,8
2023-12-13T19:08:40.403Z,8
2023-12-13T19:10:23.628Z,9
2023-12-13T19:12:07.098Z,9
2023-12-13T19:13:50.751Z,8
2023-12-13T19:15:34.141Z,9
2023-12-13T19:17:17.522Z,8
2023-12-13T19:19:00.928Z,8
2023-12-13T19:20:44.321Z,8
2023-12-13T19:22:27.956Z,8
2023-12-13T19:24:11.133Z,8
2023-12-13T19:25:54.519Z,9
2023-12-13T19:27:38.257Z,8
2023-12-13T19:29:21.606Z,9
2023-12-13T19:31:05.001Z,8
2023-12-13T19:32:48.402Z,7
2023-12-13T19:34:31.844Z,8
2023-12-13T19:36:15.209Z,9
2023-12-13T19:37:58.595Z,9
2023-12-13T19:39:42.012Z,8
2023-12-13T19:43:08.522Z,8
2023-12-13T19:44:51.868Z,8
2023-12-13T19:46:35.254Z,8
2023-12-13T19:48:18.815Z,8
2023-12-13T19:50:02.088Z,8
2023-12-13T19:51:45.457Z,7
2023-12-13T19:53:28.838Z,9
2023-12-13T19:55:12.247Z,9
2023-12-13T19:56:55.954Z,8
2023-12-13T19:58:39.365Z,8
2023-12-13T20:00:22.881Z,8
2023-12-13T20:02:06.163Z,9
2023-12-13T20:03:49.557Z,9
2023-12-13T20:05:32.942Z,9
2023-12-13T20:07:16.349Z,8
2023-12-13T20:08:59.741Z,8
2023-12-13T20:12:26.194Z,9
2023-12-13T20:14:09.602Z,9
2023-12-13T20:15:52.997Z,8
2023-12-13T20:17:36.403Z,9
2023-12-13T20:19:19.841Z,8
2023-12-13T20:21:03.189Z,8
2023-12-13T20:22:46.577Z,8
2023-12-13T20:27:55.814Z,9
2023-12-13T20:29:39.336Z,9
2023-12-13T20:31:22.689Z,8
2023-12-13T20:33:06.017Z,9
2023-12-13T20:34:49.425Z,8
2023-12-13T20:36:32.807Z,8
2023-12-13T20:38:16.207Z,8
2023-12-13T20:39:59.605Z,9
2023-12-13T20:41:43.306Z,8
2023-12-13T20:43:26.724Z,9
2023-12-13T20:45:10.093Z,9
2023-12-13T20:46:53.606Z,8
2023-12-13T20:48:37.014Z,9
2023-12-13T20:50:20.283Z,8
2023-12-13T20:52:03.688Z,9
2023-12-13T20:53:47.093Z,8
2023-12-13T20:55:30.807Z,7
2023-12-13T20:57:14.199Z,8
2023-12-13T20:58:57.580Z,7
2023-12-13T21:00:40.991Z,7
2023-12-13T21:02:24.418Z,8
2023-12-13T21:04:07.773Z,8
2023-12-13T21:05:51.183Z,8
2023-12-13T21:07:34.577Z,9
2023-12-13T21:09:18.312Z,8
2023-12-13T21:11:01.670Z,8
2023-12-13T21:12:45.076Z,8
2023-12-13T21:14:28.506Z,8
2023-12-13T21:16:11.871Z,8
2023-12-13T21:17:55.322Z,8
2023-12-13T21:19:38.664Z,8
2023-12-13T21:21:22.050Z,8
2023-12-13T21:23:05.772Z,8
2023-12-13T21:24:49.169Z,8
2023-12-13T21:26:32.607Z,8
2023-12-13T21:28:15.951Z,8
2023-12-13T21:29:59.387Z,8
2023-12-13T21:31:42.746Z,8
2023-12-13T21:33:26.195Z,8
2023-12-13T21:35:09.543Z,9
2023-12-13T21:38:36.079Z,8
2023-12-13T21:40:19.414Z,8
2023-12-13T21:42:02.825Z,8
2023-12-13T21:43:46.201Z,8
2023-12-13T21:45:29.592Z,8
2023-12-13T21:47:13.034Z,9
2023-12-13T21:48:56.394Z,8
2023-12-13T21:54:05.648Z,9
2023-12-13T21:55:49.225Z,8
2023-12-13T21:57:32.500Z,7
2023-12-13T21:59:16.018Z,8
2023-12-13T22:00:59.221Z,5
2023-12-13T22:02:42.675Z,8
2023-12-13T22:04:26.310Z,8
2023-12-13T22:09:35.270Z,8
2023-12-13T22:11:18.714Z,8
2023-12-13T22:13:02.076Z,9
2023-12-13T22:14:45.496Z,8
2023-12-13T22:16:28.936Z,8
2023-12-13T22:18:12.438Z,8
2023-12-13T22:19:55.683Z,8
2023-12-13T22:21:39.044Z,8
2023-12-13T22:25:05.628Z,9
2023-12-13T22:26:48.920Z,8
2023-12-13T22:28:32.281Z,8
2023-12-13T22:30:15.698Z,8
2023-12-13T22:31:59.133Z,8
2023-12-13T22:33:42.625Z,6
2023-12-13T22:35:25.870Z,7
2023-12-13T22:40:35.111Z,1
2023-12-13T22:42:18.508Z,1
2023-12-13T22:44:02.058Z,1
2023-12-13T22:45:45.304Z,1
2023-12-13T22:47:28.695Z,1
2023-12-13T22:49:12.103Z,1
2023-12-13T22:50:55.563Z,1
2023-12-13T22:52:38.978Z,1
2023-12-13T22:54:22.595Z,2
2023-12-13T22:56:06.092Z,1
2023-12-13T22:57:49.469Z,1
2023-12-13T22:59:33.140Z,2
2023-12-13T23:01:16.182Z,1
2023-12-13T23:02:59.773Z,1
2023-12-13T23:04:43.130Z,1
2023-12-13T23:06:26.644Z,2
2023-12-13T23:09:53.019Z,1
2023-12-13T23:11:36.240Z,1
2023-12-13T23:13:19.756Z,1
2023-12-13T23:15:03.064Z,1
2023-12-13T23:16:46.435Z,2
2023-12-13T23:18:29.956Z,1
2023-12-13T23:20:13.287Z,1
2023-12-13T23:23:39.717Z,1
2023-12-13T23:25:23.089Z,1
2023-12-13T23:27:06.685Z,1
2023-12-13T23:28:49.941Z,1
2023-12-13T23:30:33.331Z,1
2023-12-13T23:32:16.676Z,1
2023-12-13T23:34:00.058Z,1
2023-12-13T23:35:43.627Z,1
2023-12-13T23:37:27.363Z,1
2023-12-13T23:39:10.642Z,1
2023-12-13T23:40:54.155Z,1
2023-12-13T23:42:37.472Z,1
2023-12-13T23:44:20.762Z,1
2023-12-13T23:46:04.351Z,1
2023-12-13T23:47:47.594Z,1
2023-12-13T23:49:30.955Z,1
2023-12-13T23:52:57.615Z,1
2023-12-13T23:54:40.902Z,1
2023-12-13T23:56:24.243Z,2
2023-12-13T23:58:07.675Z,1
2023-12-13T23:59:51.110Z,1
